createdAt,value
2023-05-10T00:01:10.447Z,97357.25
2023-05-10T00:03:37.121Z,97349.94
2023-05-10T00:06:03.994Z,97338.13
2023-05-10T00:08:30.554Z,97340.38
2023-05-10T00:10:57.155Z,97342.59
2023-05-10T00:13:23.793Z,97338.13
2023-05-10T00:15:50.450Z,97340.19
2023-05-10T00:18:16.996Z,97334.53
2023-05-10T00:20:43.597Z,97337.38
2023-05-10T00:23:10.170Z,97331.66
2023-05-10T00:25:36.884Z,97331.91
2023-05-10T00:28:03.660Z,97332.69
2023-05-10T00:30:30.244Z,97330.25
2023-05-10T00:32:58.799Z,97335.31
2023-05-10T00:35:25.402Z,97327.19
2023-05-10T00:37:52.072Z,97324.75
2023-05-10T00:43:02.874Z,97319.09
2023-05-10T00:45:29.465Z,97316.47
2023-05-10T00:47:56.156Z,97311.38
2023-05-10T00:50:24.003Z,97312.97
2023-05-10T00:52:50.554Z,97309.34
2023-05-10T00:55:17.130Z,97298.38
2023-05-10T00:57:45.612Z,97304.06
2023-05-10T01:00:12.177Z,97301.00
2023-05-10T01:02:38.968Z,97307.31
2023-05-10T01:05:05.641Z,97298.56
2023-05-10T01:07:32.261Z,97301.63
2023-05-10T01:10:02.896Z,97296.53
2023-05-10T01:12:29.546Z,97295.94
2023-05-10T01:14:56.163Z,97295.91
2023-05-10T01:17:22.774Z,97303.25
2023-05-10T01:19:49.402Z,97287.59
2023-05-10T01:22:16.030Z,97293.28
2023-05-10T01:24:42.665Z,97294.91
2023-05-10T01:27:09.231Z,97287.75
2023-05-10T01:29:35.817Z,97287.78
2023-05-10T01:32:02.524Z,97287.56
2023-05-10T01:37:19.327Z,97284.47
2023-05-10T01:39:45.923Z,97297.47
2023-05-10T01:42:12.490Z,97290.16
2023-05-10T01:50:08.231Z,97277.81
2023-05-10T01:52:34.882Z,97279.47
2023-05-10T01:55:01.492Z,97281.28
2023-05-10T01:57:28.084Z,97282.63
2023-05-10T01:59:54.683Z,97278.47
2023-05-10T02:02:24.458Z,97278.47
2023-05-10T02:04:51.069Z,97273.50
2023-05-10T02:07:17.728Z,97280.81
2023-05-10T02:09:44.341Z,97268.69
2023-05-10T02:12:10.928Z,97271.97
2023-05-10T02:14:37.518Z,97267.53
2023-05-10T02:17:04.225Z,97269.34
2023-05-10T02:19:30.820Z,97269.63
2023-05-10T02:21:57.401Z,97265.13
2023-05-10T02:24:24.029Z,97263.34
2023-05-10T02:26:50.755Z,97265.66
2023-05-10T02:29:19.804Z,97263.59
2023-05-10T02:31:46.470Z,97266.81
2023-05-10T02:34:13.094Z,97259.94
2023-05-10T02:36:40.566Z,97254.88
2023-05-10T02:39:07.407Z,97247.34
2023-05-10T02:41:34.025Z,97254.66
2023-05-10T02:44:00.588Z,97252.41
2023-05-10T02:46:27.569Z,97250.94
2023-05-10T02:48:54.209Z,97251.03
2023-05-10T02:51:20.807Z,97261.28
2023-05-10T02:53:47.356Z,97260.31
2023-05-10T02:56:14.103Z,97253.31
2023-05-10T02:58:40.693Z,97257.41
2023-05-10T03:01:07.289Z,97254.16
2023-05-10T03:03:33.890Z,97257.13
2023-05-10T03:06:00.663Z,97252.94
2023-05-10T03:08:27.258Z,97241.16
2023-05-10T03:10:53.829Z,97255.34
2023-05-10T03:13:20.439Z,97249.81
2023-05-10T03:15:47.087Z,97253.94
2023-05-10T03:18:13.733Z,97248.84
2023-05-10T03:20:40.443Z,97255.22
2023-05-10T03:23:07.031Z,97262.66
2023-05-10T03:25:33.832Z,97256.91
2023-05-10T03:28:02.118Z,97251.91
2023-05-10T03:30:28.714Z,97258.00
2023-05-10T03:32:55.333Z,97252.47
2023-05-10T03:35:21.952Z,97261.94
2023-05-10T03:37:48.537Z,97259.66
2023-05-10T03:40:15.453Z,97252.78
2023-05-10T03:42:42.220Z,97256.09
2023-05-10T03:45:08.839Z,97265.84
2023-05-10T03:47:36.591Z,97259.78
2023-05-10T03:50:03.179Z,97269.53
2023-05-10T03:52:29.860Z,97254.38
2023-05-10T03:54:56.531Z,97265.84
2023-05-10T03:57:23.110Z,97262.16
2023-05-10T03:59:50.779Z,97265.44
2023-05-10T04:02:17.655Z,97266.59
2023-05-10T04:04:44.433Z,97268.63
2023-05-10T04:07:11.123Z,97268.78
2023-05-10T04:09:37.727Z,97269.84
2023-05-10T04:12:04.308Z,97273.19
2023-05-10T04:14:30.871Z,97271.06
2023-05-10T04:16:57.552Z,97270.88
2023-05-10T04:19:24.378Z,97272.03
2023-05-10T04:21:50.988Z,97284.69
2023-05-10T04:24:17.591Z,97270.28
2023-05-10T04:26:47.226Z,97281.00
2023-05-10T04:29:13.839Z,97285.88
2023-05-10T04:31:40.429Z,97283.59
2023-05-10T04:34:06.991Z,97283.88
2023-05-10T04:36:33.571Z,97292.44
2023-05-10T04:39:00.160Z,97291.34
2023-05-10T04:41:27.014Z,97282.63
2023-05-10T04:43:53.598Z,97281.28
2023-05-10T04:46:20.300Z,97277.66
2023-05-10T04:48:46.906Z,97284.53
2023-05-10T04:51:14.511Z,97286.94
2023-05-10T04:53:42.977Z,97283.72
2023-05-10T04:56:11.435Z,97296.16
2023-05-10T04:58:38.061Z,97287.41
2023-05-10T05:01:04.619Z,97294.72
2023-05-10T05:03:31.265Z,97287.63
2023-05-10T05:05:57.945Z,97285.81
2023-05-10T05:08:25.771Z,97280.66
2023-05-10T05:10:52.457Z,97288.81
2023-05-10T05:13:19.049Z,97276.28
2023-05-10T05:15:45.661Z,97284.69
2023-05-10T05:18:12.340Z,97284.31
2023-05-10T05:20:38.984Z,97281.59
2023-05-10T05:23:05.538Z,97285.31
2023-05-10T05:25:32.115Z,97281.41
2023-05-10T05:27:59.175Z,97285.97
2023-05-10T05:30:25.827Z,97288.09
2023-05-10T05:32:52.439Z,97287.47
2023-05-10T05:35:19.372Z,97291.00
2023-05-10T05:37:46.080Z,97292.38
2023-05-10T05:40:12.901Z,97290.78
2023-05-10T05:42:39.493Z,97295.50
2023-05-10T05:45:06.082Z,97289.09
2023-05-10T05:47:34.805Z,97284.25
2023-05-10T05:50:01.435Z,97293.88
2023-05-10T05:52:28.003Z,97289.31
2023-05-10T05:54:54.595Z,97284.38
2023-05-10T05:57:21.180Z,97294.56
2023-05-10T05:59:47.745Z,97294.03
2023-05-10T06:02:14.366Z,97291.38
2023-05-10T06:04:44.915Z,97294.81
2023-05-10T06:07:11.540Z,97298.44
2023-05-10T06:09:38.181Z,97306.38
2023-05-10T06:12:04.738Z,97301.63
2023-05-10T06:14:31.330Z,97304.38
2023-05-10T06:16:58.110Z,97306.09
2023-05-10T06:19:24.827Z,97317.63
2023-05-10T06:21:53.215Z,97316.09
2023-05-10T06:24:20.445Z,97316.94
2023-05-10T06:26:47.002Z,97312.84
2023-05-10T06:29:13.588Z,97315.63
2023-05-10T06:31:40.187Z,97312.34
2023-05-10T06:34:06.860Z,97320.09
2023-05-10T06:36:33.987Z,97316.06
2023-05-10T06:39:00.655Z,97312.03
2023-05-10T06:41:27.305Z,97314.78
2023-05-10T06:43:53.879Z,97312.81
2023-05-10T06:46:20.533Z,97316.66
2023-05-10T06:48:47.156Z,97308.13
2023-05-10T06:51:13.723Z,97308.16
2023-05-10T06:53:40.280Z,97305.50
2023-05-10T06:56:06.884Z,97301.66
2023-05-10T06:58:33.460Z,97292.75
2023-05-10T07:01:00.083Z,97300.25
2023-05-10T07:03:26.750Z,97297.25
2023-05-10T07:05:53.315Z,97306.78
2023-05-10T07:08:19.908Z,97294.38
2023-05-10T07:10:46.492Z,97297.00
2023-05-10T07:13:13.251Z,97294.31
2023-05-10T07:15:39.879Z,97291.75
2023-05-10T07:18:06.516Z,97290.25
2023-05-10T07:20:33.296Z,97296.56
2023-05-10T07:22:59.857Z,97293.72
2023-05-10T07:25:26.446Z,97291.72
2023-05-10T07:27:53.120Z,97280.50
2023-05-10T07:30:19.894Z,97284.25
2023-05-10T07:32:46.623Z,97278.81
2023-05-10T07:35:13.210Z,97278.53
2023-05-10T07:37:40.407Z,97280.84
2023-05-10T07:40:06.992Z,97278.88
2023-05-10T07:42:33.575Z,97284.41
2023-05-10T07:45:00.233Z,97282.16
2023-05-10T07:47:29.232Z,97276.16
2023-05-10T07:49:55.834Z,97282.78
2023-05-10T07:52:22.829Z,97282.97
2023-05-10T07:54:49.600Z,97281.34
2023-05-10T07:57:16.184Z,97280.63
2023-05-10T07:59:42.741Z,97282.94
2023-05-10T08:02:09.358Z,97289.53
2023-05-10T08:04:36.349Z,97290.34
2023-05-10T08:07:03.933Z,97285.53
2023-05-10T08:09:30.976Z,97291.13
2023-05-10T08:11:57.567Z,97287.81
2023-05-10T08:14:24.394Z,97288.25
2023-05-10T08:16:51.347Z,97289.34
2023-05-10T08:19:17.932Z,97282.31
2023-05-10T08:21:44.527Z,97290.63
2023-05-10T08:24:11.566Z,97287.66
2023-05-10T08:26:38.225Z,97286.47
2023-05-10T08:29:04.968Z,97290.56
2023-05-10T08:31:31.636Z,97293.03
2023-05-10T08:33:58.315Z,97290.09
2023-05-10T08:36:24.878Z,97283.41
2023-05-10T08:38:52.100Z,97288.75
2023-05-10T08:41:18.832Z,97290.16
2023-05-10T08:43:46.360Z,97287.66
2023-05-10T08:46:12.923Z,97286.91
2023-05-10T08:48:39.584Z,97291.91
2023-05-10T08:51:06.214Z,97285.97
2023-05-10T08:53:32.801Z,97290.09
2023-05-10T08:55:59.381Z,97288.84
2023-05-10T08:58:25.970Z,97287.84
2023-05-10T09:00:52.621Z,97286.00
2023-05-10T09:03:19.348Z,97276.56
2023-05-10T09:05:45.897Z,97284.16
2023-05-10T09:08:12.502Z,97277.38
2023-05-10T09:10:39.084Z,97280.59
2023-05-10T09:13:05.690Z,97277.16
2023-05-10T09:15:32.250Z,97281.69
2023-05-10T09:17:58.888Z,97283.13
2023-05-10T09:20:25.703Z,97277.13
2023-05-10T09:22:52.309Z,97281.75
2023-05-10T09:25:19.129Z,97275.13
2023-05-10T09:27:46.060Z,97278.84
2023-05-10T09:30:12.658Z,97286.66
2023-05-10T09:32:39.247Z,97275.13
2023-05-10T09:35:05.867Z,97282.09
2023-05-10T09:37:32.454Z,97267.75
2023-05-10T09:39:59.055Z,97271.50
2023-05-10T09:42:25.849Z,97267.81
2023-05-10T09:44:52.790Z,97264.44
2023-05-10T09:47:19.346Z,97267.16
2023-05-10T09:49:45.943Z,97263.66
2023-05-10T09:52:12.502Z,97261.06
2023-05-10T09:54:39.129Z,97255.50
2023-05-10T09:57:05.705Z,97260.19
2023-05-10T09:59:32.301Z,97260.44
2023-05-10T10:01:59.000Z,97258.75
2023-05-10T10:04:25.855Z,97253.28
2023-05-10T10:06:52.478Z,97252.38
2023-05-10T10:09:19.077Z,97253.03
2023-05-10T10:11:45.649Z,97266.94
2023-05-10T10:14:12.247Z,97252.63
2023-05-10T10:16:48.468Z,97251.56
2023-05-10T10:19:22.199Z,97245.47
2023-05-10T10:21:49.001Z,97237.88
2023-05-10T10:24:15.602Z,97236.56
2023-05-10T10:26:42.194Z,97234.97
2023-05-10T10:29:09.085Z,97234.91
2023-05-10T10:31:35.813Z,97232.91
2023-05-10T10:34:02.438Z,97229.06
2023-05-10T10:36:29.391Z,97234.88
2023-05-10T10:38:56.045Z,97220.50
2023-05-10T10:41:22.647Z,97228.81
2023-05-10T10:43:49.239Z,97240.97
2023-05-10T10:46:15.930Z,97232.34
2023-05-10T10:48:42.557Z,97226.91
2023-05-10T10:51:10.717Z,97222.06
2023-05-10T10:53:39.218Z,97220.47
2023-05-10T10:56:05.802Z,97211.09
2023-05-10T10:58:32.384Z,97213.38
2023-05-10T11:00:59.596Z,97212.97
2023-05-10T11:03:26.191Z,97213.25
2023-05-10T11:05:52.788Z,97204.63
2023-05-10T11:08:19.414Z,97212.91
2023-05-10T11:10:46.003Z,97213.16
2023-05-10T11:13:12.571Z,97211.25
2023-05-10T11:15:39.148Z,97210.31
2023-05-10T11:18:05.764Z,97201.44
2023-05-10T11:20:32.354Z,97207.28
2023-05-10T11:22:58.985Z,97203.88
2023-05-10T11:25:25.583Z,97206.13
2023-05-10T11:27:52.186Z,97196.81
2023-05-10T11:30:19.654Z,97207.88
2023-05-10T11:32:46.526Z,97199.50
2023-05-10T11:35:13.109Z,97199.72
2023-05-10T11:37:39.996Z,97192.81
2023-05-10T11:40:06.616Z,97195.44
2023-05-10T11:42:33.183Z,97206.56
2023-05-10T11:44:59.789Z,97209.53
2023-05-10T11:47:27.279Z,97209.69
2023-05-10T11:49:55.605Z,97201.03
2023-05-10T11:52:22.204Z,97200.00
2023-05-10T11:54:48.804Z,97192.16
2023-05-10T11:57:15.395Z,97199.59
2023-05-10T11:59:43.187Z,97204.19
2023-05-10T12:02:09.949Z,97206.75
2023-05-10T12:04:36.578Z,97202.88
2023-05-10T12:07:06.346Z,97198.66
2023-05-10T12:09:43.325Z,97201.03
2023-05-10T12:12:10.566Z,97198.13
2023-05-10T12:14:37.531Z,97198.00
2023-05-10T12:17:04.145Z,97203.69
2023-05-10T12:19:30.704Z,97203.06
2023-05-10T12:21:57.292Z,97199.50
2023-05-10T12:24:23.838Z,97203.34
2023-05-10T12:26:50.749Z,97204.53
2023-05-10T12:29:17.437Z,97199.19
2023-05-10T12:31:44.038Z,97198.28
2023-05-10T12:34:10.678Z,97204.22
2023-05-10T12:36:37.605Z,97200.41
2023-05-10T12:39:04.219Z,97198.41
2023-05-10T12:41:30.825Z,97190.44
2023-05-10T12:43:57.401Z,97195.75
2023-05-10T12:46:24.442Z,97194.75
2023-05-10T12:48:57.582Z,97203.59
2023-05-10T12:51:30.167Z,97198.06
2023-05-10T12:53:56.783Z,97209.94
2023-05-10T12:56:23.349Z,97202.84
2023-05-10T12:58:50.413Z,97202.13
2023-05-10T13:01:17.024Z,97198.63
2023-05-10T13:03:43.708Z,97200.66
2023-05-10T13:06:10.301Z,97199.28
2023-05-10T13:08:36.879Z,97195.06
2023-05-10T13:11:03.562Z,97191.31
2023-05-10T13:13:30.136Z,97193.97
2023-05-10T13:15:56.744Z,97185.91
2023-05-10T13:18:23.442Z,97182.06
2023-05-10T13:20:50.135Z,97183.69
2023-05-10T13:23:16.694Z,97191.72
2023-05-10T13:25:43.310Z,97188.25
2023-05-10T13:28:09.966Z,97185.94
2023-05-10T13:30:36.528Z,97187.38
2023-05-10T13:33:03.334Z,97178.69
2023-05-10T13:35:29.969Z,97180.75
2023-05-10T13:37:56.546Z,97176.50
2023-05-10T13:40:24.385Z,97178.09
2023-05-10T13:42:52.480Z,97177.81
2023-05-10T13:45:19.579Z,97177.81
2023-05-10T13:47:46.329Z,97171.56
2023-05-10T13:50:12.992Z,97169.72
2023-05-10T13:52:39.586Z,97168.84
2023-05-10T13:55:06.205Z,97165.91
2023-05-10T13:57:32.857Z,97169.84
2023-05-10T13:59:59.825Z,97166.91
2023-05-10T14:02:26.447Z,97162.19
2023-05-10T14:04:53.046Z,97163.03
2023-05-10T14:07:20.111Z,97160.22
2023-05-10T14:09:46.694Z,97166.91
2023-05-10T14:12:13.270Z,97163.00
2023-05-10T14:14:39.944Z,97161.94
2023-05-10T14:17:09.468Z,97161.41
2023-05-10T14:19:37.320Z,97164.00
2023-05-10T14:22:03.904Z,97166.25
2023-05-10T14:24:30.505Z,97159.91
2023-05-10T14:26:57.300Z,97159.50
2023-05-10T14:29:23.901Z,97163.69
2023-05-10T14:31:50.539Z,97154.59
2023-05-10T14:34:17.135Z,97150.16
2023-05-10T14:36:43.704Z,97147.00
2023-05-10T14:39:10.328Z,97145.88
2023-05-10T14:41:36.892Z,97147.78
2023-05-10T14:44:03.498Z,97150.34
2023-05-10T14:46:30.358Z,97147.81
2023-05-10T14:48:57.038Z,97150.59
2023-05-10T14:51:23.635Z,97144.91
2023-05-10T14:53:50.199Z,97140.03
2023-05-10T14:56:16.900Z,97141.75
2023-05-10T14:58:43.471Z,97139.84
2023-05-10T15:01:10.042Z,97143.69
2023-05-10T15:03:37.139Z,97144.19
2023-05-10T15:06:04.110Z,97142.66
2023-05-10T15:08:30.701Z,97146.78
2023-05-10T15:10:57.309Z,97141.84
2023-05-10T15:13:24.003Z,97141.00
2023-05-10T15:15:50.653Z,97139.84
2023-05-10T15:18:17.610Z,97141.59
2023-05-10T15:20:44.501Z,97143.28
2023-05-10T15:23:11.307Z,97134.25
2023-05-10T15:25:37.888Z,97142.41
2023-05-10T15:28:04.683Z,97136.69
2023-05-10T15:30:31.305Z,97139.09
2023-05-10T15:32:58.002Z,97136.75
2023-05-10T15:35:24.656Z,97136.53
2023-05-10T15:37:51.596Z,97138.69
2023-05-10T15:40:18.192Z,97137.34
2023-05-10T15:42:44.847Z,97129.81
2023-05-10T15:45:11.525Z,97131.34
2023-05-10T15:47:38.101Z,97129.00
2023-05-10T15:50:07.299Z,97126.88
2023-05-10T15:52:33.919Z,97125.56
2023-05-10T15:55:00.541Z,97123.94
2023-05-10T15:57:27.134Z,97119.13
2023-05-10T15:59:53.716Z,97119.09
2023-05-10T16:02:20.559Z,97113.81
2023-05-10T16:04:47.413Z,97109.78
2023-05-10T16:07:15.380Z,97115.94
2023-05-10T16:09:41.987Z,97119.72
2023-05-10T16:12:08.552Z,97120.50
2023-05-10T16:14:35.142Z,97113.28
2023-05-10T16:17:02.948Z,97115.63
2023-05-10T16:19:31.711Z,97118.63
2023-05-10T16:21:58.324Z,97127.56
2023-05-10T16:24:24.912Z,97123.22
2023-05-10T16:26:51.503Z,97125.66
2023-05-10T16:29:18.169Z,97126.22
2023-05-10T16:31:44.724Z,97129.47
2023-05-10T16:34:11.334Z,97124.31
2023-05-10T16:36:37.892Z,97137.94
2023-05-10T16:39:06.059Z,97134.13
2023-05-10T16:41:32.636Z,97132.28
2023-05-10T16:43:59.186Z,97145.63
2023-05-10T16:46:25.823Z,97132.59
2023-05-10T16:48:52.482Z,97139.03
2023-05-10T16:51:19.069Z,97129.69
2023-05-10T16:53:45.669Z,97131.81
2023-05-10T16:56:12.245Z,97148.34
2023-05-10T16:58:38.837Z,97143.31
2023-05-10T17:01:05.458Z,97140.63
2023-05-10T17:03:32.102Z,97144.06
2023-05-10T17:05:59.765Z,97139.25
2023-05-10T17:08:26.360Z,97143.97
2023-05-10T17:10:53.408Z,97150.03
2023-05-10T17:13:19.989Z,97151.34
2023-05-10T17:15:46.637Z,97154.25
2023-05-10T17:18:13.302Z,97150.56
2023-05-10T17:20:39.892Z,97152.50
2023-05-10T17:23:06.450Z,97150.81
2023-05-10T17:25:33.045Z,97154.97
2023-05-10T17:27:59.611Z,97160.91
2023-05-10T17:30:26.413Z,97162.47
2023-05-10T17:32:53.059Z,97161.00
2023-05-10T17:35:21.974Z,97161.81
2023-05-10T17:37:48.568Z,97161.94
2023-05-10T17:40:15.159Z,97157.34
2023-05-10T17:42:41.795Z,97167.16
2023-05-10T17:45:08.392Z,97164.56
2023-05-10T17:47:35.206Z,97163.47
2023-05-10T17:50:01.796Z,97165.59
2023-05-10T17:52:28.749Z,97165.00
2023-05-10T17:54:56.395Z,97163.38
2023-05-10T17:57:22.974Z,97168.44
2023-05-10T17:59:49.546Z,97168.41
2023-05-10T18:02:16.118Z,97170.25
2023-05-10T18:04:42.791Z,97177.75
2023-05-10T18:07:09.426Z,97173.75
2023-05-10T18:09:35.994Z,97172.63
2023-05-10T18:12:02.585Z,97172.06
2023-05-10T18:14:39.888Z,97169.06
2023-05-10T18:17:08.155Z,97178.09
2023-05-10T18:19:34.934Z,97174.53
2023-05-10T18:22:01.553Z,97177.56
2023-05-10T18:24:38.257Z,97175.78
2023-05-10T18:27:06.399Z,97178.03
2023-05-10T18:29:32.975Z,97179.94
2023-05-10T18:31:59.710Z,97183.56
2023-05-10T18:34:26.304Z,97186.72
2023-05-10T18:36:52.885Z,97195.44
2023-05-10T18:39:19.449Z,97188.84
2023-05-10T18:41:46.067Z,97190.94
2023-05-10T18:44:12.630Z,97202.97
2023-05-10T18:46:39.381Z,97196.78
2023-05-10T18:49:06.040Z,97205.13
2023-05-10T18:51:32.671Z,97206.50
2023-05-10T18:53:59.720Z,97205.97
2023-05-10T18:56:26.315Z,97205.47
2023-05-10T18:58:52.925Z,97208.94
2023-05-10T19:01:19.948Z,97216.94
2023-05-10T19:03:46.575Z,97216.00
2023-05-10T19:06:13.161Z,97218.69
2023-05-10T19:08:39.759Z,97222.56
2023-05-10T19:11:06.315Z,97219.97
2023-05-10T19:13:32.908Z,97219.38
2023-05-10T19:15:59.575Z,97220.03
2023-05-10T19:18:26.499Z,97225.38
2023-05-10T19:20:54.382Z,97225.63
2023-05-10T19:23:21.047Z,97228.22
2023-05-10T19:25:47.923Z,97233.88
2023-05-10T19:28:14.609Z,97236.25
2023-05-10T19:30:41.247Z,97227.53
2023-05-10T19:33:07.916Z,97228.91
2023-05-10T19:35:34.509Z,97233.38
2023-05-10T19:38:01.169Z,97232.00
2023-05-10T19:40:28.378Z,97232.50
2023-05-10T19:42:55.146Z,97230.00
2023-05-10T19:45:21.824Z,97230.56
2023-05-10T19:47:48.538Z,97232.34
2023-05-10T19:50:16.782Z,97228.06
2023-05-10T19:52:44.155Z,97231.91
2023-05-10T19:55:10.868Z,97221.59
2023-05-10T19:57:37.447Z,97221.91
2023-05-10T20:00:04.039Z,97225.97
2023-05-10T20:02:30.723Z,97225.16
2023-05-10T20:04:57.331Z,97226.59
2023-05-10T20:07:23.916Z,97224.34
2023-05-10T20:09:50.494Z,97228.06
2023-05-10T20:12:17.050Z,97221.34
2023-05-10T20:14:43.691Z,97230.97
2023-05-10T20:17:10.440Z,97223.22
2023-05-10T20:19:37.080Z,97228.41
2023-05-10T20:22:03.644Z,97225.25
2023-05-10T20:24:30.221Z,97225.97
2023-05-10T20:26:56.778Z,97223.78
2023-05-10T20:29:23.360Z,97230.97
2023-05-10T20:31:50.037Z,97229.88
2023-05-10T20:34:16.704Z,97234.84
2023-05-10T20:36:43.282Z,97231.66
2023-05-10T20:39:10.077Z,97232.28
2023-05-10T20:41:36.681Z,97231.66
2023-05-10T20:44:03.461Z,97237.19
2023-05-10T20:46:32.102Z,97233.06
2023-05-10T20:48:58.711Z,97237.50
2023-05-10T20:51:25.385Z,97235.19
2023-05-10T20:53:52.036Z,97227.69
2023-05-10T20:56:18.614Z,97225.25
2023-05-10T20:58:45.174Z,97228.72
2023-05-10T21:01:11.745Z,97223.72
2023-05-10T21:03:38.332Z,97220.19
2023-05-10T21:06:04.901Z,97215.47
2023-05-10T21:08:33.531Z,97216.84
2023-05-10T21:11:00.292Z,97216.84
2023-05-10T21:13:26.876Z,97220.72
2023-05-10T21:15:53.482Z,97216.53
2023-05-10T21:18:20.100Z,97216.38
2023-05-10T21:20:48.238Z,97217.59
2023-05-10T21:23:14.829Z,97215.09
2023-05-10T21:25:42.239Z,97217.25
2023-05-10T21:28:08.795Z,97216.03
2023-05-10T21:30:35.367Z,97215.53
2023-05-10T21:33:02.198Z,97221.91
2023-05-10T21:35:28.819Z,97219.72
2023-05-10T21:37:55.419Z,97219.63
2023-05-10T21:40:21.999Z,97214.38
2023-05-10T21:42:48.585Z,97218.47
2023-05-10T21:45:15.183Z,97220.91
2023-05-10T21:47:41.870Z,97219.84
2023-05-10T21:50:08.481Z,97220.63
2023-05-10T21:52:35.566Z,97218.19
2023-05-10T21:55:02.154Z,97214.13
2023-05-10T21:57:28.767Z,97222.00
2023-05-10T21:59:55.348Z,97219.16
2023-05-10T22:02:22.054Z,97216.84
2023-05-10T22:04:48.739Z,97219.50
2023-05-10T22:07:15.286Z,97223.66
2023-05-10T22:09:41.861Z,97219.03
2023-05-10T22:12:08.495Z,97218.97
2023-05-10T22:14:35.089Z,97220.00
2023-05-10T22:17:01.840Z,97225.16
2023-05-10T22:19:28.463Z,97221.16
2023-05-10T22:21:55.065Z,97224.28
2023-05-10T22:24:21.652Z,97213.66
2023-05-10T22:26:48.232Z,97220.09
2023-05-10T22:29:14.827Z,97223.56
2023-05-10T22:31:41.457Z,97219.19
2023-05-10T22:34:08.077Z,97228.44
2023-05-10T22:36:34.880Z,97224.88
2023-05-10T22:39:01.865Z,97227.97
2023-05-10T22:41:28.438Z,97227.31
2023-05-10T22:43:55.027Z,97228.31
2023-05-10T22:46:21.626Z,97222.28
2023-05-10T22:48:48.235Z,97231.00
2023-05-10T22:51:14.822Z,97231.00
2023-05-10T22:53:42.484Z,97231.94
2023-05-10T22:56:09.054Z,97231.00
2023-05-10T22:58:35.727Z,97232.63
2023-05-10T23:01:02.288Z,97237.22
2023-05-10T23:03:28.868Z,97240.44
2023-05-10T23:05:55.466Z,97228.06
2023-05-10T23:08:22.346Z,97223.63
2023-05-10T23:10:48.946Z,97226.06
2023-05-10T23:13:15.547Z,97225.59
2023-05-10T23:18:26.300Z,97226.00
2023-05-10T23:20:52.899Z,97232.59
2023-05-10T23:23:19.524Z,97227.50
2023-05-10T23:25:46.111Z,97231.31
2023-05-10T23:28:12.690Z,97220.44
2023-05-10T23:30:39.284Z,97221.72
2023-05-10T23:33:05.874Z,97230.63
2023-05-10T23:35:32.581Z,97220.13
2023-05-10T23:37:59.184Z,97221.94
2023-05-10T23:40:25.828Z,97228.69
2023-05-10T23:42:52.423Z,97231.44
2023-05-10T23:45:18.997Z,97225.88
2023-05-10T23:47:46.297Z,97215.25
2023-05-10T23:50:17.174Z,97219.44
2023-05-10T23:52:44.015Z,97219.75
2023-05-10T23:55:10.695Z,97216.66
2023-05-10T23:57:37.702Z,97219.31
